sensor_id;sensor_type;location;lat;lon;timestamp;pressure;altitude;pressure_sealevel;temperature;humidity
2785;BME280;57944;48.722;9.316;2023-07-09T00:01:15;98387.13;;;20.52;99.30
2785;BME280;57944;48.722;9.316;2023-07-09T00:03:47;98388.31;;;20.40;100.00
2785;BME280;57944;48.722;9.316;2023-07-09T00:06:22;98392.34;;;20.30;100.00
2785;BME280;57944;48.722;9.316;2023-07-09T00:08:52;98393.94;;;20.31;100.00
2785;BME280;57944;48.722;9.316;2023-07-09T00:11:23;98397.03;;;20.28;100.00
2785;BME280;57944;48.722;9.316;2023-07-09T00:13:53;98392.13;;;20.32;100.00
2785;BME280;57944;48.722;9.316;2023-07-09T00:16:26;98388.75;;;20.31;100.00
2785;BME280;57944;48.722;9.316;2023-07-09T00:18:56;98393.34;;;20.24;100.00
2785;BME280;57944;48.722;9.316;2023-07-09T00:21:30;98394.31;;;20.18;100.00
2785;BME280;57944;48.722;9.316;2023-07-09T00:24:01;98403.00;;;20.07;100.00
2785;BME280;57944;48.722;9.316;2023-07-09T00:26:32;98406.31;;;20.02;100.00
2785;BME280;57944;48.722;9.316;2023-07-09T00:29:07;98407.56;;;20.00;100.00
2785;BME280;57944;48.722;9.316;2023-07-09T00:31:38;98413.84;;;20.04;100.00
2785;BME280;57944;48.722;9.316;2023-07-09T00:34:10;98414.28;;;19.96;100.00
2785;BME280;57944;48.722;9.316;2023-07-09T00:36:44;98408.81;;;19.92;100.00
2785;BME280;57944;48.722;9.316;2023-07-09T00:39:16;98411.00;;;20.05;100.00
2785;BME280;57944;48.722;9.316;2023-07-09T00:41:47;98412.88;;;20.10;100.00
2785;BME280;57944;48.722;9.316;2023-07-09T00:44:28;98410.22;;;20.05;100.00
2785;BME280;57944;48.722;9.316;2023-07-09T00:47:19;98412.75;;;20.00;100.00
2785;BME280;57944;48.722;9.316;2023-07-09T00:50:10;98414.50;;;19.94;100.00
2785;BME280;57944;48.722;9.316;2023-07-09T00:52:51;98411.84;;;19.89;100.00
2785;BME280;57944;48.722;9.316;2023-07-09T00:55:25;98421.25;;;19.95;100.00
2785;BME280;57944;48.722;9.316;2023-07-09T00:58:01;98419.50;;;20.01;100.00
2785;BME280;57944;48.722;9.316;2023-07-09T01:00:40;98414.06;;;20.02;100.00
2785;BME280;57944;48.722;9.316;2023-07-09T01:03:20;98419.78;;;20.04;100.00
2785;BME280;57944;48.722;9.316;2023-07-09T01:05:53;98417.03;;;19.89;100.00
2785;BME280;57944;48.722;9.316;2023-07-09T01:08:32;98418.91;;;19.94;100.00
2785;BME280;57944;48.722;9.316;2023-07-09T01:11:03;98428.19;;;19.90;100.00
2785;BME280;57944;48.722;9.316;2023-07-09T01:13:36;98422.41;;;19.82;100.00
2785;BME280;57944;48.722;9.316;2023-07-09T01:16:07;98429.59;;;19.80;100.00
2785;BME280;57944;48.722;9.316;2023-07-09T01:18:38;98423.84;;;19.73;100.00
2785;BME280;57944;48.722;9.316;2023-07-09T01:21:11;98426.50;;;19.78;100.00
2785;BME280;57944;48.722;9.316;2023-07-09T01:23:43;98425.41;;;19.74;100.00
2785;BME280;57944;48.722;9.316;2023-07-09T01:26:26;98434.66;;;19.70;100.00
2785;BME280;57944;48.722;9.316;2023-07-09T01:28:58;98436.59;;;19.63;100.00
2785;BME280;57944;48.722;9.316;2023-07-09T01:31:31;98438.13;;;19.59;100.00
2785;BME280;57944;48.722;9.316;2023-07-09T01:34:03;98426.06;;;19.48;100.00
2785;BME280;57944;48.722;9.316;2023-07-09T01:36:37;98429.06;;;19.39;100.00
2785;BME280;57944;48.722;9.316;2023-07-09T01:39:07;98434.16;;;19.34;100.00
2785;BME280;57944;48.722;9.316;2023-07-09T01:41:39;98426.56;;;19.28;100.00
2785;BME280;57944;48.722;9.316;2023-07-09T01:44:09;98427.50;;;19.22;100.00
2785;BME280;57944;48.722;9.316;2023-07-09T01:46:42;98431.59;;;19.17;100.00
2785;BME280;57944;48.722;9.316;2023-07-09T01:49:16;98428.75;;;19.19;100.00
2785;BME280;57944;48.722;9.316;2023-07-09T01:51:51;98419.53;;;19.23;100.00
2785;BME280;57944;48.722;9.316;2023-07-09T01:54:22;98430.16;;;19.27;100.00
2785;BME280;57944;48.722;9.316;2023-07-09T01:56:53;98423.13;;;19.22;100.00
2785;BME280;57944;48.722;9.316;2023-07-09T01:59:29;98425.09;;;19.15;100.00
2785;BME280;57944;48.722;9.316;2023-07-09T02:02:00;98425.19;;;19.03;100.00
2785;BME280;57944;48.722;9.316;2023-07-09T02:04:31;98423.31;;;18.98;100.00
2785;BME280;57944;48.722;9.316;2023-07-09T02:07:05;98426.34;;;18.95;100.00
2785;BME280;57944;48.722;9.316;2023-07-09T02:09:36;98424.72;;;18.89;100.00
2785;BME280;57944;48.722;9.316;2023-07-09T02:12:08;98425.41;;;18.85;100.00
2785;BME280;57944;48.722;9.316;2023-07-09T02:14:41;98430.34;;;18.86;100.00
2785;BME280;57944;48.722;9.316;2023-07-09T02:17:13;98426.81;;;18.92;100.00
2785;BME280;57944;48.722;9.316;2023-07-09T02:19:45;98431.91;;;18.87;100.00
2785;BME280;57944;48.722;9.316;2023-07-09T02:22:18;98435.19;;;18.83;100.00
2785;BME280;57944;48.722;9.316;2023-07-09T02:24:49;98433.38;;;18.83;100.00
2785;BME280;57944;48.722;9.316;2023-07-09T02:27:21;98434.09;;;18.79;100.00
2785;BME280;57944;48.722;9.316;2023-07-09T02:29:52;98436.31;;;18.87;100.00
2785;BME280;57944;48.722;9.316;2023-07-09T02:32:25;98435.97;;;18.83;100.00
2785;BME280;57944;48.722;9.316;2023-07-09T02:34:56;98433.94;;;18.85;100.00
2785;BME280;57944;48.722;9.316;2023-07-09T02:37:30;98438.16;;;18.91;100.00
2785;BME280;57944;48.722;9.316;2023-07-09T02:40:01;98440.13;;;19.01;100.00
2785;BME280;57944;48.722;9.316;2023-07-09T02:42:32;98437.06;;;18.87;100.00
2785;BME280;57944;48.722;9.316;2023-07-09T02:45:03;98442.47;;;18.86;100.00
2785;BME280;57944;48.722;9.316;2023-07-09T02:47:34;98441.78;;;18.90;100.00
2785;BME280;57944;48.722;9.316;2023-07-09T02:50:07;98445.84;;;18.86;100.00
2785;BME280;57944;48.722;9.316;2023-07-09T02:52:40;98446.06;;;18.85;100.00
2785;BME280;57944;48.722;9.316;2023-07-09T02:55:12;98451.50;;;18.71;100.00
2785;BME280;57944;48.722;9.316;2023-07-09T02:57:43;98452.69;;;18.64;100.00
2785;BME280;57944;48.722;9.316;2023-07-09T03:00:15;98444.03;;;18.58;100.00
2785;BME280;57944;48.722;9.316;2023-07-09T03:02:45;98459.22;;;18.54;100.00
2785;BME280;57944;48.722;9.316;2023-07-09T03:05:16;98450.75;;;18.42;100.00
2785;BME280;57944;48.722;9.316;2023-07-09T03:07:49;98454.31;;;18.41;100.00
2785;BME280;57944;48.722;9.316;2023-07-09T03:10:20;98460.66;;;18.34;100.00
2785;BME280;57944;48.722;9.316;2023-07-09T03:12:51;98458.84;;;18.34;100.00
2785;BME280;57944;48.722;9.316;2023-07-09T03:15:21;98463.47;;;18.32;100.00
2785;BME280;57944;48.722;9.316;2023-07-09T03:17:52;98460.78;;;18.27;100.00
2785;BME280;57944;48.722;9.316;2023-07-09T03:20:22;98463.59;;;18.25;100.00
2785;BME280;57944;48.722;9.316;2023-07-09T03:22:56;98463.69;;;18.30;100.00
2785;BME280;57944;48.722;9.316;2023-07-09T03:25:26;98464.34;;;18.38;100.00
2785;BME280;57944;48.722;9.316;2023-07-09T03:27:57;98469.50;;;18.38;100.00
2785;BME280;57944;48.722;9.316;2023-07-09T03:30:27;98467.28;;;18.29;100.00
2785;BME280;57944;48.722;9.316;2023-07-09T03:32:58;98466.81;;;18.33;100.00
2785;BME280;57944;48.722;9.316;2023-07-09T03:35:31;98466.97;;;18.26;100.00
2785;BME280;57944;48.722;9.316;2023-07-09T03:38:05;98471.97;;;18.33;100.00
2785;BME280;57944;48.722;9.316;2023-07-09T03:40:35;98469.81;;;18.41;100.00
2785;BME280;57944;48.722;9.316;2023-07-09T03:43:08;98465.41;;;18.53;100.00
2785;BME280;57944;48.722;9.316;2023-07-09T03:45:39;98475.63;;;18.48;100.00
2785;BME280;57944;48.722;9.316;2023-07-09T03:48:09;98478.22;;;18.48;100.00
2785;BME280;57944;48.722;9.316;2023-07-09T03:50:41;98481.34;;;18.50;100.00
2785;BME280;57944;48.722;9.316;2023-07-09T03:53:15;98477.84;;;18.57;100.00
2785;BME280;57944;48.722;9.316;2023-07-09T03:55:50;98480.06;;;18.65;100.00
2785;BME280;57944;48.722;9.316;2023-07-09T03:58:23;98476.44;;;18.66;100.00
2785;BME280;57944;48.722;9.316;2023-07-09T04:00:54;98479.50;;;18.63;100.00
2785;BME280;57944;48.722;9.316;2023-07-09T04:03:25;98479.59;;;18.68;100.00
2785;BME280;57944;48.722;9.316;2023-07-09T04:05:55;98481.81;;;18.76;100.00
2785;BME280;57944;48.722;9.316;2023-07-09T04:08:29;98487.31;;;18.80;100.00
2785;BME280;57944;48.722;9.316;2023-07-09T04:11:01;98481.34;;;18.79;100.00
2785;BME280;57944;48.722;9.316;2023-07-09T04:13:31;98488.72;;;18.87;100.00
2785;BME280;57944;48.722;9.316;2023-07-09T04:16:02;98489.69;;;19.15;100.00
2785;BME280;57944;48.722;9.316;2023-07-09T04:18:33;98490.31;;;19.56;100.00
2785;BME280;57944;48.722;9.316;2023-07-09T04:21:04;98493.44;;;19.97;100.00
2785;BME280;57944;48.722;9.316;2023-07-09T04:23:37;98492.66;;;20.62;100.00
2785;BME280;57944;48.722;9.316;2023-07-09T04:26:09;98490.63;;;21.29;100.00
2785;BME280;57944;48.722;9.316;2023-07-09T04:28:42;98487.41;;;21.96;98.67
2785;BME280;57944;48.722;9.316;2023-07-09T04:31:13;98487.56;;;22.32;93.89
2785;BME280;57944;48.722;9.316;2023-07-09T04:33:43;98491.75;;;22.59;91.12
2785;BME280;57944;48.722;9.316;2023-07-09T04:36:14;98492.31;;;22.81;87.94
2785;BME280;57944;48.722;9.316;2023-07-09T04:38:47;98489.22;;;23.00;85.40
2785;BME280;57944;48.722;9.316;2023-07-09T04:41:18;98489.47;;;23.34;82.68
2785;BME280;57944;48.722;9.316;2023-07-09T04:43:48;98500.63;;;23.60;81.21
2785;BME280;57944;48.722;9.316;2023-07-09T04:46:19;98498.44;;;23.93;79.10
2785;BME280;57944;48.722;9.316;2023-07-09T04:48:49;98497.34;;;24.09;77.22
2785;BME280;57944;48.722;9.316;2023-07-09T04:51:21;98503.97;;;24.41;75.28
2785;BME280;57944;48.722;9.316;2023-07-09T04:53:54;98495.81;;;24.63;72.61
2785;BME280;57944;48.722;9.316;2023-07-09T04:56:25;98499.06;;;24.79;70.78
2785;BME280;57944;48.722;9.316;2023-07-09T04:58:57;98504.22;;;24.89;70.19
2785;BME280;57944;48.722;9.316;2023-07-09T05:01:28;98502.53;;;25.03;69.03
2785;BME280;57944;48.722;9.316;2023-07-09T05:03:59;98496.09;;;25.30;67.12
2785;BME280;57944;48.722;9.316;2023-07-09T05:06:30;98500.59;;;25.48;65.50
2785;BME280;57944;48.722;9.316;2023-07-09T05:09:03;98504.00;;;25.73;64.54
2785;BME280;57944;48.722;9.316;2023-07-09T05:11:35;98500.97;;;25.90;63.02
2785;BME280;57944;48.722;9.316;2023-07-09T05:14:07;98506.56;;;26.21;61.70
2785;BME280;57944;48.722;9.316;2023-07-09T05:16:37;98512.25;;;26.47;59.55
2785;BME280;57944;48.722;9.316;2023-07-09T05:19:08;98510.13;;;26.87;57.92
2785;BME280;57944;48.722;9.316;2023-07-09T05:21:39;98510.84;;;27.25;55.23
2785;BME280;57944;48.722;9.316;2023-07-09T05:24:12;98509.72;;;27.59;53.20
2785;BME280;57944;48.722;9.316;2023-07-09T05:26:43;98514.66;;;28.02;52.06
2785;BME280;57944;48.722;9.316;2023-07-09T05:29:13;98509.28;;;28.35;50.86
2785;BME280;57944;48.722;9.316;2023-07-09T05:31:44;98512.78;;;28.66;49.43
2785;BME280;57944;48.722;9.316;2023-07-09T05:34:14;98518.63;;;28.63;49.37
2785;BME280;57944;48.722;9.316;2023-07-09T05:36:45;98516.97;;;28.90;48.71
2785;BME280;57944;48.722;9.316;2023-07-09T05:39:18;98515.53;;;28.61;48.60
2785;BME280;57944;48.722;9.316;2023-07-09T05:41:49;98516.84;;;28.36;49.13
2785;BME280;57944;48.722;9.316;2023-07-09T05:44:19;98515.16;;;28.04;50.48
2785;BME280;57944;48.722;9.316;2023-07-09T05:46:50;98514.56;;;28.07;50.67
2785;BME280;57944;48.722;9.316;2023-07-09T05:49:21;98516.16;;;28.44;50.08
2785;BME280;57944;48.722;9.316;2023-07-09T05:51:51;98520.13;;;28.42;49.61
2785;BME280;57944;48.722;9.316;2023-07-09T05:54:25;98522.81;;;28.87;48.57
2785;BME280;57944;48.722;9.316;2023-07-09T05:56:55;98518.72;;;28.58;49.07
2785;BME280;57944;48.722;9.316;2023-07-09T05:59:26;98521.66;;;29.02;48.74
2785;BME280;57944;48.722;9.316;2023-07-09T06:01:57;98515.63;;;29.55;46.86
2785;BME280;57944;48.722;9.316;2023-07-09T06:04:28;98524.84;;;29.75;46.28
2785;BME280;57944;48.722;9.316;2023-07-09T06:06:59;98516.16;;;29.66;46.10
2785;BME280;57944;48.722;9.316;2023-07-09T06:09:34;98519.19;;;30.08;45.77
2785;BME280;57944;48.722;9.316;2023-07-09T06:12:05;98519.41;;;30.46;44.59
2785;BME280;57944;48.722;9.316;2023-07-09T06:14:37;98524.34;;;30.30;44.67
2785;BME280;57944;48.722;9.316;2023-07-09T06:17:08;98520.09;;;29.94;45.35
2785;BME280;57944;48.722;9.316;2023-07-09T06:19:38;98522.72;;;29.94;45.29
2785;BME280;57944;48.722;9.316;2023-07-09T06:22:09;98527.22;;;30.11;45.17
2785;BME280;57944;48.722;9.316;2023-07-09T06:24:44;98520.31;;;30.59;44.13
2785;BME280;57944;48.722;9.316;2023-07-09T06:27:15;98519.25;;;30.86;43.22
2785;BME280;57944;48.722;9.316;2023-07-09T06:29:46;98530.19;;;31.14;42.97
2785;BME280;57944;48.722;9.316;2023-07-09T06:32:16;98523.75;;;31.50;41.95
2785;BME280;57944;48.722;9.316;2023-07-09T06:34:47;98525.16;;;31.47;41.36
2785;BME280;57944;48.722;9.316;2023-07-09T06:37:18;98527.09;;;31.21;42.71
2785;BME280;57944;48.722;9.316;2023-07-09T06:39:51;98526.44;;;32.00;40.99
2785;BME280;57944;48.722;9.316;2023-07-09T06:42:21;98522.34;;;32.54;40.26
2785;BME280;57944;48.722;9.316;2023-07-09T06:45:15;98525.88;;;33.49;38.05
2785;BME280;57944;48.722;9.316;2023-07-09T06:47:46;98524.59;;;33.92;37.36
2785;BME280;57944;48.722;9.316;2023-07-09T06:50:17;98526.56;;;34.47;36.00
2785;BME280;57944;48.722;9.316;2023-07-09T06:52:48;98531.19;;;33.98;36.54
2785;BME280;57944;48.722;9.316;2023-07-09T06:55:21;98524.22;;;34.58;36.02
2785;BME280;57944;48.722;9.316;2023-07-09T06:57:53;98519.59;;;34.99;35.38
2785;BME280;57944;48.722;9.316;2023-07-09T07:00:23;98528.69;;;35.30;35.39
2785;BME280;57944;48.722;9.316;2023-07-09T07:02:54;98525.53;;;35.56;34.32
2785;BME280;57944;48.722;9.316;2023-07-09T07:05:25;98531.59;;;35.72;34.61
2785;BME280;57944;48.722;9.316;2023-07-09T07:07:55;98520.09;;;35.84;34.19
2785;BME280;57944;48.722;9.316;2023-07-09T07:10:28;98527.88;;;35.77;34.12
2785;BME280;57944;48.722;9.316;2023-07-09T07:12:59;98513.47;;;35.94;33.45
2785;BME280;57944;48.722;9.316;2023-07-09T07:15:30;98522.19;;;36.30;32.67
2785;BME280;57944;48.722;9.316;2023-07-09T07:18:00;98521.06;;;36.70;32.35
2785;BME280;57944;48.722;9.316;2023-07-09T07:20:32;98522.94;;;36.50;32.22
2785;BME280;57944;48.722;9.316;2023-07-09T07:23:02;98515.06;;;36.96;31.48
2785;BME280;57944;48.722;9.316;2023-07-09T07:25:35;98525.91;;;37.33;30.90
2785;BME280;57944;48.722;9.316;2023-07-09T07:28:06;98524.63;;;37.99;30.22
2785;BME280;57944;48.722;9.316;2023-07-09T07:30:36;98516.44;;;38.12;30.68
2785;BME280;57944;48.722;9.316;2023-07-09T07:33:07;98514.28;;;38.25;30.08
2785;BME280;57944;48.722;9.316;2023-07-09T07:35:37;98508.00;;;38.06;30.47
2785;BME280;57944;48.722;9.316;2023-07-09T07:38:27;98512.31;;;38.52;29.66
2785;BME280;57944;48.722;9.316;2023-07-09T07:41:00;98509.78;;;39.07;28.74
2785;BME280;57944;48.722;9.316;2023-07-09T07:43:31;98513.66;;;39.17;28.79
2785;BME280;57944;48.722;9.316;2023-07-09T07:46:01;98505.16;;;39.00;28.84
2785;BME280;57944;48.722;9.316;2023-07-09T07:48:32;98503.22;;;38.94;28.89
2785;BME280;57944;48.722;9.316;2023-07-09T07:51:03;98505.13;;;38.93;28.77
2785;BME280;57944;48.722;9.316;2023-07-09T07:53:35;98496.69;;;38.87;28.90
2785;BME280;57944;48.722;9.316;2023-07-09T07:56:08;98495.19;;;38.90;28.84
2785;BME280;57944;48.722;9.316;2023-07-09T07:58:38;98495.28;;;39.01;28.54
2785;BME280;57944;48.722;9.316;2023-07-09T08:01:08;98497.31;;;38.74;28.50
2785;BME280;57944;48.722;9.316;2023-07-09T08:03:38;98489.63;;;39.72;27.55
2785;BME280;57944;48.722;9.316;2023-07-09T08:06:09;98488.63;;;39.98;27.77
2785;BME280;57944;48.722;9.316;2023-07-09T08:08:39;98488.31;;;40.17;27.68
2785;BME280;57944;48.722;9.316;2023-07-09T08:11:12;98487.28;;;40.58;26.77
2785;BME280;57944;48.722;9.316;2023-07-09T08:13:42;98486.16;;;40.95;26.24
2785;BME280;57944;48.722;9.316;2023-07-09T08:16:13;98489.25;;;40.82;26.83
2785;BME280;57944;48.722;9.316;2023-07-09T08:18:45;98488.50;;;41.07;26.70
2785;BME280;57944;48.722;9.316;2023-07-09T08:21:16;98485.75;;;41.53;26.37
2785;BME280;57944;48.722;9.316;2023-07-09T08:23:46;98479.53;;;40.17;27.50
2785;BME280;57944;48.722;9.316;2023-07-09T08:26:19;98486.88;;;40.45;26.80
2785;BME280;57944;48.722;9.316;2023-07-09T08:28:51;98482.34;;;41.24;26.43
2785;BME280;57944;48.722;9.316;2023-07-09T08:31:21;98486.00;;;41.95;25.50
2785;BME280;57944;48.722;9.316;2023-07-09T08:33:52;98485.16;;;42.09;25.07
2785;BME280;57944;48.722;9.316;2023-07-09T08:36:23;98483.59;;;42.15;24.93
2785;BME280;57944;48.722;9.316;2023-07-09T08:38:56;98478.16;;;41.20;25.63
2785;BME280;57944;48.722;9.316;2023-07-09T08:41:39;98478.41;;;40.18;27.03
2785;BME280;57944;48.722;9.316;2023-07-09T08:44:37;98487.69;;;40.81;26.45
2785;BME280;57944;48.722;9.316;2023-07-09T08:47:18;98477.78;;;41.21;25.94
2785;BME280;57944;48.722;9.316;2023-07-09T08:49:59;98475.44;;;41.48;25.46
2785;BME280;57944;48.722;9.316;2023-07-09T08:52:35;98463.97;;;41.51;25.29
2785;BME280;57944;48.722;9.316;2023-07-09T08:55:12;98485.75;;;42.45;24.39
2785;BME280;57944;48.722;9.316;2023-07-09T08:57:49;98475.19;;;42.76;24.17
2785;BME280;57944;48.722;9.316;2023-07-09T09:00:31;98479.41;;;42.77;23.85
2785;BME280;57944;48.722;9.316;2023-07-09T09:03:05;98480.06;;;42.36;24.38
2785;BME280;57944;48.722;9.316;2023-07-09T09:05:43;98486.53;;;42.94;23.63
2785;BME280;57944;48.722;9.316;2023-07-09T09:08:26;98486.84;;;42.51;23.96
2785;BME280;57944;48.722;9.316;2023-07-09T09:11:12;98483.66;;;43.16;23.37
2785;BME280;57944;48.722;9.316;2023-07-09T09:13:46;98487.88;;;43.58;22.97
2785;BME280;57944;48.722;9.316;2023-07-09T09:16:24;98477.44;;;43.26;22.98
2785;BME280;57944;48.722;9.316;2023-07-09T09:18:58;98484.31;;;42.23;23.26
2785;BME280;57944;48.722;9.316;2023-07-09T09:21:32;98479.84;;;42.05;23.63
2785;BME280;57944;48.722;9.316;2023-07-09T09:24:14;98465.53;;;42.30;23.57
2785;BME280;57944;48.722;9.316;2023-07-09T09:26:45;98476.09;;;42.55;22.98
2785;BME280;57944;48.722;9.316;2023-07-09T09:29:23;98474.59;;;42.99;22.94
2785;BME280;57944;48.722;9.316;2023-07-09T09:31:56;98472.94;;;42.67;22.08
2785;BME280;57944;48.722;9.316;2023-07-09T09:34:29;98469.31;;;42.92;22.14
2785;BME280;57944;48.722;9.316;2023-07-09T09:36:59;98459.91;;;43.56;21.01
2785;BME280;57944;48.722;9.316;2023-07-09T09:39:30;98467.53;;;43.88;20.89
2785;BME280;57944;48.722;9.316;2023-07-09T09:42:01;98468.28;;;44.46;19.03
2785;BME280;57944;48.722;9.316;2023-07-09T09:44:34;98468.19;;;44.53;19.29
2785;BME280;57944;48.722;9.316;2023-07-09T09:47:05;98468.25;;;45.40;19.16
2785;BME280;57944;48.722;9.316;2023-07-09T09:49:39;98465.56;;;45.60;18.49
2785;BME280;57944;48.722;9.316;2023-07-09T09:52:14;98471.59;;;46.21;17.83
2785;BME280;57944;48.722;9.316;2023-07-09T09:54:52;98472.38;;;44.81;19.04
2785;BME280;57944;48.722;9.316;2023-07-09T09:57:25;98467.28;;;45.51;18.63
2785;BME280;57944;48.722;9.316;2023-07-09T09:59:59;98465.84;;;45.26;18.47
2785;BME280;57944;48.722;9.316;2023-07-09T10:02:39;98463.84;;;44.87;19.45
2785;BME280;57944;48.722;9.316;2023-07-09T10:05:15;98451.13;;;45.51;19.07
2785;BME280;57944;48.722;9.316;2023-07-09T10:07:56;98455.72;;;45.54;18.60
2785;BME280;57944;48.722;9.316;2023-07-09T10:10:32;98447.94;;;46.61;17.70
2785;BME280;57944;48.722;9.316;2023-07-09T10:13:15;98448.91;;;46.84;17.56
2785;BME280;57944;48.722;9.316;2023-07-09T10:16:05;98434.50;;;45.56;18.55
2785;BME280;57944;48.722;9.316;2023-07-09T10:18:50;98430.00;;;44.86;18.99
2785;BME280;57944;48.722;9.316;2023-07-09T10:21:30;98434.84;;;45.58;18.36
2785;BME280;57944;48.722;9.316;2023-07-09T10:24:18;98432.13;;;44.74;19.40
2785;BME280;57944;48.722;9.316;2023-07-09T10:27:02;98426.50;;;44.65;19.53
2785;BME280;57944;48.722;9.316;2023-07-09T10:29:58;98423.88;;;43.84;19.45
2785;BME280;57944;48.722;9.316;2023-07-09T10:33:05;98424.66;;;43.81;19.38
2785;BME280;57944;48.722;9.316;2023-07-09T10:35:46;98422.50;;;43.72;18.65
2785;BME280;57944;48.722;9.316;2023-07-09T10:38:43;98416.81;;;43.97;18.89
2785;BME280;57944;48.722;9.316;2023-07-09T10:41:19;98419.41;;;44.78;18.31
2785;BME280;57944;48.722;9.316;2023-07-09T10:44:00;98420.38;;;46.21;17.28
2785;BME280;57944;48.722;9.316;2023-07-09T10:46:37;98415.03;;;46.83;16.54
2785;BME280;57944;48.722;9.316;2023-07-09T10:49:15;98420.72;;;46.72;16.61
2785;BME280;57944;48.722;9.316;2023-07-09T10:51:52;98406.41;;;45.57;17.39
2785;BME280;57944;48.722;9.316;2023-07-09T10:54:32;98400.50;;;43.81;19.27
2785;BME280;57944;48.722;9.316;2023-07-09T10:57:12;98394.88;;;44.26;18.65
2785;BME280;57944;48.722;9.316;2023-07-09T10:59:49;98394.50;;;44.00;18.41
2785;BME280;57944;48.722;9.316;2023-07-09T11:02:25;98396.66;;;44.36;17.41
2785;BME280;57944;48.722;9.316;2023-07-09T11:05:00;98385.06;;;44.63;17.41
2785;BME280;57944;48.722;9.316;2023-07-09T11:07:38;98389.47;;;44.53;16.72
2785;BME280;57944;48.722;9.316;2023-07-09T11:10:23;98389.69;;;45.06;15.09
2785;BME280;57944;48.722;9.316;2023-07-09T11:13:01;98395.81;;;44.63;15.21
2785;BME280;57944;48.722;9.316;2023-07-09T11:15:37;98393.34;;;45.55;15.23
2785;BME280;57944;48.722;9.316;2023-07-09T11:18:16;98385.06;;;45.46;16.34
2785;BME280;57944;48.722;9.316;2023-07-09T11:21:01;98390.41;;;45.66;15.54
2785;BME280;57944;48.722;9.316;2023-07-09T11:23:48;98379.72;;;45.02;16.25
2785;BME280;57944;48.722;9.316;2023-07-09T11:26:24;98375.19;;;45.39;15.01
2785;BME280;57944;48.722;9.316;2023-07-09T11:29:13;98374.91;;;44.50;15.04
2785;BME280;57944;48.722;9.316;2023-07-09T11:31:46;98377.09;;;44.32;15.50
2785;BME280;57944;48.722;9.316;2023-07-09T11:34:19;98376.06;;;43.71;15.33
2785;BME280;57944;48.722;9.316;2023-07-09T11:36:58;98369.72;;;44.12;15.25
2785;BME280;57944;48.722;9.316;2023-07-09T11:39:39;98372.94;;;44.04;14.51
2785;BME280;57944;48.722;9.316;2023-07-09T11:42:29;98366.78;;;44.97;14.77
2785;BME280;57944;48.722;9.316;2023-07-09T11:45:10;98371.59;;;45.82;14.49
2785;BME280;57944;48.722;9.316;2023-07-09T11:47:46;98371.50;;;46.51;13.90
2785;BME280;57944;48.722;9.316;2023-07-09T11:50:26;98372.31;;;47.23;13.10
2785;BME280;57944;48.722;9.316;2023-07-09T11:53:04;98372.56;;;48.05;13.03
2785;BME280;57944;48.722;9.316;2023-07-09T11:55:41;98375.72;;;46.69;14.84
2785;BME280;57944;48.722;9.316;2023-07-09T11:58:14;98368.28;;;45.58;15.60
2785;BME280;57944;48.722;9.316;2023-07-09T12:00:50;98357.09;;;44.80;15.79
2785;BME280;57944;48.722;9.316;2023-07-09T12:03:25;98350.97;;;44.36;16.39
2785;BME280;57944;48.722;9.316;2023-07-09T12:06:02;98349.66;;;45.08;15.60
2785;BME280;57944;48.722;9.316;2023-07-09T12:08:39;98360.50;;;46.29;16.05
2785;BME280;57944;48.722;9.316;2023-07-09T12:11:23;98353.22;;;45.61;16.04
2785;BME280;57944;48.722;9.316;2023-07-09T12:13:54;98366.47;;;46.04;15.59
2785;BME280;57944;48.722;9.316;2023-07-09T12:16:35;98350.56;;;46.43;15.62
2785;BME280;57944;48.722;9.316;2023-07-09T12:19:07;98343.16;;;43.91;16.96
2785;BME280;57944;48.722;9.316;2023-07-09T12:21:42;98343.63;;;41.23;18.52
2785;BME280;57944;48.722;9.316;2023-07-09T12:24:22;98347.47;;;42.03;18.86
2785;BME280;57944;48.722;9.316;2023-07-09T12:26:55;98332.59;;;42.43;18.29
2785;BME280;57944;48.722;9.316;2023-07-09T12:29:27;98343.13;;;43.37;17.93
2785;BME280;57944;48.722;9.316;2023-07-09T12:31:58;98335.00;;;43.75;16.90
2785;BME280;57944;48.722;9.316;2023-07-09T12:34:31;98327.41;;;43.93;16.91
2785;BME280;57944;48.722;9.316;2023-07-09T12:37:01;98328.38;;;44.30;17.25
2785;BME280;57944;48.722;9.316;2023-07-09T12:39:34;98326.09;;;44.75;16.57
2785;BME280;57944;48.722;9.316;2023-07-09T12:42:16;98335.06;;;45.45;15.92
2785;BME280;57944;48.722;9.316;2023-07-09T12:44:47;98326.25;;;46.59;14.86
2785;BME280;57944;48.722;9.316;2023-07-09T12:47:20;98323.50;;;46.75;15.35
2785;BME280;57944;48.722;9.316;2023-07-09T12:50:18;98322.81;;;47.00;15.14
2785;BME280;57944;48.722;9.316;2023-07-09T12:52:50;98313.03;;;47.07;14.91
2785;BME280;57944;48.722;9.316;2023-07-09T12:55:25;98314.09;;;48.33;14.63
2785;BME280;57944;48.722;9.316;2023-07-09T12:57:59;98308.50;;;47.42;14.99
2785;BME280;57944;48.722;9.316;2023-07-09T13:00:31;98306.78;;;48.21;14.91
2785;BME280;57944;48.722;9.316;2023-07-09T13:03:02;98302.78;;;47.65;14.58
2785;BME280;57944;48.722;9.316;2023-07-09T13:05:33;98294.13;;;47.32;15.00
2785;BME280;57944;48.722;9.316;2023-07-09T13:08:03;98294.88;;;47.84;14.75
2785;BME280;57944;48.722;9.316;2023-07-09T13:10:41;98298.25;;;49.20;13.98
2785;BME280;57944;48.722;9.316;2023-07-09T13:13:13;98292.06;;;48.44;14.41
2785;BME280;57944;48.722;9.316;2023-07-09T13:15:48;98284.88;;;48.63;14.16
2785;BME280;57944;48.722;9.316;2023-07-09T13:18:23;98274.75;;;47.72;14.23
2785;BME280;57944;48.722;9.316;2023-07-09T13:20:55;98273.34;;;47.93;14.64
2785;BME280;57944;48.722;9.316;2023-07-09T13:23:29;98265.97;;;48.28;14.33
2785;BME280;57944;48.722;9.316;2023-07-09T13:26:02;98268.25;;;47.95;14.24
2785;BME280;57944;48.722;9.316;2023-07-09T13:28:32;98270.56;;;46.07;15.83
2785;BME280;57944;48.722;9.316;2023-07-09T13:31:13;98261.16;;;46.99;15.06
2785;BME280;57944;48.722;9.316;2023-07-09T13:33:48;98262.91;;;47.18;15.32
2785;BME280;57944;48.722;9.316;2023-07-09T13:36:20;98264.34;;;47.23;14.69
2785;BME280;57944;48.722;9.316;2023-07-09T13:38:50;98267.44;;;47.60;14.76
2785;BME280;57944;48.722;9.316;2023-07-09T13:41:24;98263.22;;;47.72;14.65
2785;BME280;57944;48.722;9.316;2023-07-09T13:43:55;98256.94;;;47.87;14.19